createdAt,value
2017-08-09T00:00:16.343Z,0
2017-08-09T00:01:17.003Z,0
2017-08-09T00:02:17.659Z,0
2017-08-09T00:03:18.315Z,0
2017-08-09T00:04:18.971Z,0
2017-08-09T00:05:19.877Z,0
2017-08-09T00:06:20.534Z,0
2017-08-09T00:07:21.192Z,0
2017-08-09T00:08:21.846Z,0
2017-08-09T00:09:22.504Z,0
2017-08-09T00:10:23.407Z,0
2017-08-09T00:11:24.063Z,0
2017-08-09T00:12:24.719Z,0
2017-08-09T00:13:25.376Z,0
2017-08-09T00:14:26.031Z,0
2017-08-09T00:15:26.937Z,0
2017-08-09T00:16:27.594Z,0
2017-08-09T00:17:28.248Z,0
2017-08-09T00:18:28.904Z,0
2017-08-09T00:19:29.561Z,0
2017-08-09T00:20:30.554Z,0
2017-08-09T00:21:31.210Z,0
2017-08-09T00:22:31.866Z,0
2017-08-09T00:23:32.522Z,0
2017-08-09T00:24:33.177Z,0
2017-08-09T00:25:34.085Z,0
2017-08-09T00:26:34.741Z,0
2017-08-09T00:27:35.395Z,0
2017-08-09T00:28:36.052Z,0
2017-08-09T00:29:36.708Z,0
2017-08-09T00:30:37.614Z,0
2017-08-09T00:31:38.274Z,0
2017-08-09T00:32:38.927Z,0
2017-08-09T00:33:39.585Z,0
2017-08-09T00:34:40.241Z,0
2017-08-09T00:35:41.145Z,0
2017-08-09T00:36:41.802Z,0
2017-08-09T00:37:42.460Z,0
2017-08-09T00:38:43.121Z,0
2017-08-09T00:39:43.771Z,0
2017-08-09T00:40:44.727Z,0
2017-08-09T00:41:45.385Z,0
2017-08-09T00:42:46.040Z,0
2017-08-09T00:43:46.696Z,0
2017-08-09T00:44:47.351Z,0
2017-08-09T00:45:48.257Z,0
2017-08-09T00:46:48.911Z,0
2017-08-09T00:47:49.568Z,0
2017-08-09T00:48:50.260Z,0
2017-08-09T00:49:50.915Z,0
2017-08-09T00:50:51.870Z,0
2017-08-09T00:51:52.527Z,0
2017-08-09T00:52:53.182Z,0
2017-08-09T00:53:53.838Z,0
2017-08-09T00:54:54.503Z,0
2017-08-09T00:55:55.397Z,0
2017-08-09T00:56:56.052Z,0
2017-08-09T00:57:56.707Z,0
2017-08-09T00:58:57.364Z,0
2017-08-09T00:59:58.018Z,0
2017-08-09T01:00:58.929Z,0
2017-08-09T01:01:59.584Z,0
2017-08-09T01:03:00.241Z,0
2017-08-09T01:04:00.895Z,0
2017-08-09T01:05:01.563Z,0
2017-08-09T01:06:02.513Z,0
2017-08-09T01:07:03.168Z,0
2017-08-09T01:08:03.824Z,0
2017-08-09T01:09:04.478Z,0
2017-08-09T01:10:05.134Z,0
2017-08-09T01:11:06.038Z,0
2017-08-09T01:12:06.699Z,0
2017-08-09T01:13:07.356Z,0
2017-08-09T01:14:08.010Z,0
2017-08-09T01:15:08.666Z,0
2017-08-09T01:16:09.623Z,0
2017-08-09T01:17:10.277Z,0
2017-08-09T01:18:10.932Z,0
2017-08-09T01:19:11.591Z,0
2017-08-09T01:20:12.278Z,0
2017-08-09T01:21:13.185Z,0
2017-08-09T01:22:13.841Z,0
2017-08-09T01:23:14.496Z,0
2017-08-09T01:24:15.150Z,0
2017-08-09T01:25:15.805Z,0
2017-08-09T01:26:16.760Z,0
2017-08-09T01:27:17.417Z,0
2017-08-09T01:28:18.072Z,0
2017-08-09T01:29:18.734Z,0
2017-08-09T01:30:19.388Z,0
2017-08-09T01:31:20.293Z,0
2017-08-09T01:32:20.952Z,0
2017-08-09T01:33:21.606Z,0
2017-08-09T01:34:22.297Z,0
2017-08-09T01:35:22.950Z,0
2017-08-09T01:36:23.857Z,0
2017-08-09T01:37:24.512Z,0
2017-08-09T01:38:25.168Z,0
2017-08-09T01:39:25.823Z,0
2017-08-09T01:40:26.479Z,0
2017-08-09T01:41:27.433Z,0
2017-08-09T01:42:28.088Z,0
2017-08-09T01:43:28.743Z,0
2017-08-09T01:44:29.403Z,0
2017-08-09T01:45:30.051Z,0
2017-08-09T01:46:31.005Z,0
2017-08-09T01:47:31.662Z,0
2017-08-09T01:48:32.315Z,0
2017-08-09T01:49:32.969Z,0
2017-08-09T01:50:33.624Z,0
2017-08-09T01:51:34.530Z,0
2017-08-09T01:52:35.185Z,0
2017-08-09T01:53:35.841Z,0
2017-08-09T01:54:36.496Z,0
2017-08-09T01:55:37.150Z,0
2017-08-09T01:56:38.108Z,0
2017-08-09T01:57:38.761Z,0
2017-08-09T01:58:39.417Z,0
2017-08-09T01:59:40.072Z,0
2017-08-09T02:00:40.725Z,0
2017-08-09T02:01:41.680Z,0
2017-08-09T02:02:42.334Z,0
2017-08-09T02:03:42.988Z,0
2017-08-09T02:04:43.642Z,0
2017-08-09T02:05:44.297Z,0
2017-08-09T02:06:45.201Z,0
2017-08-09T02:07:45.857Z,0
2017-08-09T02:08:46.512Z,0
2017-08-09T02:09:47.165Z,0
2017-08-09T02:10:47.820Z,0
2017-08-09T02:11:48.725Z,0
2017-08-09T02:12:49.379Z,0
2017-08-09T02:13:50.035Z,0
2017-08-09T02:14:50.690Z,0
2017-08-09T02:15:51.347Z,0
2017-08-09T02:16:52.300Z,0
2017-08-09T02:17:52.953Z,0
2017-08-09T02:18:53.608Z,0
2017-08-09T02:19:54.263Z,0
2017-08-09T02:20:54.918Z,0
2017-08-09T02:21:55.825Z,0
2017-08-09T02:22:56.479Z,0
2017-08-09T02:23:57.132Z,0
2017-08-09T02:24:57.788Z,0
2017-08-09T02:25:58.441Z,0
2017-08-09T02:26:59.396Z,0
2017-08-09T02:28:00.051Z,0
2017-08-09T02:29:00.705Z,0
2017-08-09T02:30:01.360Z,0
2017-08-09T02:31:02.016Z,0
2017-08-09T02:32:02.970Z,0
2017-08-09T02:33:03.624Z,0
2017-08-09T02:34:04.280Z,0
2017-08-09T02:35:04.932Z,0
2017-08-09T02:36:05.588Z,0
2017-08-09T02:37:06.492Z,0
2017-08-09T02:38:07.145Z,0
2017-08-09T02:39:07.800Z,0
2017-08-09T02:40:08.457Z,0
2017-08-09T02:41:09.111Z,0
2017-08-09T02:42:10.022Z,0
2017-08-09T02:43:10.677Z,0
2017-08-09T02:44:11.330Z,0
2017-08-09T02:45:11.984Z,0
2017-08-09T02:46:12.639Z,0
2017-08-09T02:47:13.594Z,0
2017-08-09T02:48:14.248Z,0
2017-08-09T02:49:14.902Z,0
2017-08-09T02:50:15.563Z,0
2017-08-09T02:51:16.249Z,0
2017-08-09T02:52:17.204Z,0
2017-08-09T02:53:17.893Z,0
2017-08-09T02:54:18.548Z,0
2017-08-09T02:55:19.202Z,0
2017-08-09T02:56:19.856Z,0
2017-08-09T02:57:20.771Z,0
2017-08-09T02:58:21.425Z,0
2017-08-09T02:59:22.081Z,0
2017-08-09T03:00:22.734Z,0
2017-08-09T03:01:23.389Z,0
2017-08-09T03:02:24.382Z,0
2017-08-09T03:03:25.036Z,0
2017-08-09T03:04:25.692Z,0
2017-08-09T03:05:26.349Z,0
2017-08-09T03:06:27.002Z,0
2017-08-09T03:07:27.908Z,0
2017-08-09T03:08:28.565Z,0
2017-08-09T03:09:29.222Z,0
2017-08-09T03:10:29.879Z,0
2017-08-09T03:11:30.532Z,0
2017-08-09T03:12:31.436Z,0
2017-08-09T03:13:32.090Z,0
2017-08-09T03:14:32.744Z,0
2017-08-09T03:15:33.399Z,0
2017-08-09T03:16:34.052Z,0
2017-08-09T03:17:34.995Z,0
2017-08-09T03:18:35.648Z,0
2017-08-09T03:19:36.301Z,0
2017-08-09T03:20:36.957Z,0
2017-08-09T03:21:37.646Z,0
2017-08-09T03:22:38.551Z,0
2017-08-09T03:23:39.204Z,0
2017-08-09T03:24:39.895Z,0
2017-08-09T03:25:40.549Z,0
2017-08-09T03:26:41.202Z,0
2017-08-09T03:27:42.106Z,0
2017-08-09T03:28:42.763Z,0
2017-08-09T03:29:43.414Z,0
2017-08-09T03:30:44.069Z,0
2017-08-09T03:31:44.724Z,0
2017-08-09T03:32:45.681Z,0
2017-08-09T03:33:46.336Z,0
2017-08-09T03:34:46.991Z,0
2017-08-09T03:35:47.645Z,0
2017-08-09T03:36:48.300Z,0
2017-08-09T03:37:49.245Z,0
2017-08-09T03:38:49.935Z,0
2017-08-09T03:39:50.591Z,0
2017-08-09T03:40:51.247Z,0
2017-08-09T03:41:51.900Z,0
2017-08-09T03:42:52.805Z,0
2017-08-09T03:43:53.459Z,0
2017-08-09T03:44:54.114Z,0
2017-08-09T03:45:54.772Z,0
2017-08-09T03:46:55.424Z,0
2017-08-09T03:47:56.329Z,0
2017-08-09T03:48:56.985Z,0
2017-08-09T03:49:57.641Z,0
2017-08-09T03:50:58.347Z,0
2017-08-09T03:51:59.003Z,0
2017-08-09T03:52:59.908Z,0
2017-08-09T03:54:00.565Z,0
2017-08-09T03:55:01.220Z,0
2017-08-09T03:56:01.877Z,0
2017-08-09T03:57:02.539Z,0
2017-08-09T03:58:03.491Z,5
2017-08-09T03:59:04.146Z,5
2017-08-09T04:00:04.801Z,5
2017-08-09T04:01:05.459Z,5
2017-08-09T04:02:06.122Z,5
2017-08-09T04:03:07.076Z,5
2017-08-09T04:04:07.734Z,11
2017-08-09T04:05:08.391Z,11
2017-08-09T04:06:09.050Z,11
2017-08-09T04:07:09.707Z,11
2017-08-09T04:08:10.665Z,11
2017-08-09T04:09:11.322Z,16
2017-08-09T04:10:11.982Z,16
2017-08-09T04:11:12.640Z,16
2017-08-09T04:12:13.295Z,16
2017-08-09T04:13:14.204Z,16
2017-08-09T04:14:14.865Z,16
2017-08-09T04:15:15.521Z,16
2017-08-09T04:16:16.177Z,16
2017-08-09T04:17:16.834Z,16
2017-08-09T04:18:17.743Z,16
2017-08-09T04:19:18.402Z,16
2017-08-09T04:20:19.058Z,16
2017-08-09T04:21:19.714Z,16
2017-08-09T04:22:20.374Z,16
2017-08-09T04:23:21.283Z,22
2017-08-09T04:24:21.941Z,22
2017-08-09T04:25:22.598Z,22
2017-08-09T04:26:23.258Z,22
2017-08-09T04:27:23.917Z,22
2017-08-09T04:28:24.882Z,22
2017-08-09T04:29:25.540Z,22
2017-08-09T04:30:26.200Z,22
2017-08-09T04:31:26.858Z,28
2017-08-09T04:32:27.517Z,28
2017-08-09T04:33:28.427Z,28
2017-08-09T04:34:29.086Z,28
2017-08-09T04:35:29.744Z,28
2017-08-09T04:36:30.404Z,28
2017-08-09T04:37:31.062Z,28
2017-08-09T04:38:32.020Z,33
2017-08-09T04:39:32.680Z,33
2017-08-09T04:40:33.337Z,33
2017-08-09T04:41:33.997Z,33
2017-08-09T04:42:34.655Z,33
2017-08-09T04:43:35.614Z,33
2017-08-09T04:44:36.274Z,39
2017-08-09T04:45:36.932Z,39
2017-08-09T04:46:37.596Z,39
2017-08-09T04:47:38.250Z,45
2017-08-09T04:48:39.209Z,45
2017-08-09T04:49:39.880Z,45
2017-08-09T04:50:40.535Z,45
2017-08-09T04:51:41.194Z,45
2017-08-09T04:52:41.865Z,45
2017-08-09T04:53:42.812Z,45
2017-08-09T04:54:43.471Z,45
2017-08-09T04:55:44.129Z,50
2017-08-09T04:56:44.789Z,50
2017-08-09T04:57:45.448Z,50
2017-08-09T04:58:46.358Z,50
2017-08-09T04:59:47.018Z,50
2017-08-09T05:00:47.677Z,50
2017-08-09T05:01:48.343Z,50
2017-08-09T05:02:48.994Z,50
2017-08-09T05:03:49.954Z,50
2017-08-09T05:04:50.614Z,50
2017-08-09T05:05:51.273Z,56
2017-08-09T05:06:51.933Z,56
2017-08-09T05:07:52.591Z,56
2017-08-09T05:08:53.588Z,61
2017-08-09T05:09:54.246Z,61
2017-08-09T05:10:54.906Z,61
2017-08-09T05:11:55.564Z,61
2017-08-09T05:12:56.223Z,67
2017-08-09T05:13:57.131Z,67
2017-08-09T05:14:57.795Z,67
2017-08-09T05:15:58.452Z,73
2017-08-09T05:16:59.146Z,73
2017-08-09T05:17:59.804Z,73
2017-08-09T05:19:00.724Z,73
2017-08-09T05:20:01.370Z,73
2017-08-09T05:21:02.029Z,78
2017-08-09T05:22:02.690Z,78
2017-08-09T05:23:03.359Z,78
2017-08-09T05:24:04.309Z,78
2017-08-09T05:25:04.966Z,84
2017-08-09T05:26:05.626Z,84
2017-08-09T05:27:06.286Z,90
2017-08-09T05:28:06.948Z,90
2017-08-09T05:29:07.857Z,90
2017-08-09T05:30:08.519Z,95
2017-08-09T05:31:09.215Z,95
2017-08-09T05:32:09.875Z,95
2017-08-09T05:33:10.534Z,101
2017-08-09T05:34:11.446Z,106
2017-08-09T05:35:12.105Z,106
2017-08-09T05:36:12.766Z,106
2017-08-09T05:37:13.426Z,106
2017-08-09T05:38:14.086Z,106
2017-08-09T05:39:14.996Z,106
2017-08-09T05:40:15.661Z,106
2017-08-09T05:41:16.321Z,106
2017-08-09T05:42:16.980Z,106
2017-08-09T05:43:17.642Z,112
2017-08-09T05:44:18.604Z,112
2017-08-09T05:45:19.265Z,112
2017-08-09T05:46:19.925Z,112
2017-08-09T05:47:20.588Z,112
2017-08-09T05:48:21.287Z,118
2017-08-09T05:49:22.198Z,118
2017-08-09T05:50:22.860Z,118
2017-08-09T05:51:23.523Z,118
2017-08-09T05:52:24.187Z,118
2017-08-09T05:53:24.849Z,118
2017-08-09T05:54:25.810Z,118
2017-08-09T05:55:26.471Z,118
2017-08-09T05:56:27.130Z,123
2017-08-09T05:57:27.794Z,123
2017-08-09T05:58:28.493Z,123
2017-08-09T05:59:29.490Z,123
2017-08-09T06:00:30.151Z,129
2017-08-09T06:01:30.816Z,135
2017-08-09T06:02:31.473Z,135
2017-08-09T06:03:32.136Z,140
2017-08-09T06:04:33.048Z,140
2017-08-09T06:05:33.709Z,140
2017-08-09T06:06:34.409Z,140
2017-08-09T06:07:35.105Z,146
2017-08-09T06:08:35.765Z,140
2017-08-09T06:09:36.679Z,135
2017-08-09T06:10:37.339Z,135
2017-08-09T06:11:38.036Z,135
2017-08-09T06:12:38.734Z,129
2017-08-09T06:13:39.398Z,129
2017-08-09T06:14:40.309Z,135
2017-08-09T06:15:40.972Z,135
2017-08-09T06:16:41.634Z,135
2017-08-09T06:17:42.333Z,140
2017-08-09T06:18:42.997Z,140
2017-08-09T06:19:43.957Z,140
2017-08-09T06:20:44.620Z,140
2017-08-09T06:21:45.280Z,140
2017-08-09T06:22:45.943Z,140
2017-08-09T06:23:46.604Z,146
2017-08-09T06:24:47.615Z,146
2017-08-09T06:25:48.279Z,140
2017-08-09T06:26:48.941Z,146
2017-08-09T06:27:49.640Z,151
2017-08-09T06:28:50.304Z,151
2017-08-09T06:29:51.267Z,151
2017-08-09T06:30:51.929Z,151
2017-08-09T06:31:52.593Z,151
2017-08-09T06:32:53.256Z,157
2017-08-09T06:33:53.919Z,163
2017-08-09T06:34:54.920Z,168
2017-08-09T06:35:55.583Z,168
2017-08-09T06:36:56.246Z,163
2017-08-09T06:37:56.908Z,163
2017-08-09T06:38:57.572Z,157
2017-08-09T06:39:58.487Z,146
2017-08-09T06:40:59.150Z,135
2017-08-09T06:41:59.811Z,118
2017-08-09T06:43:00.473Z,112
2017-08-09T06:44:01.136Z,101
2017-08-09T06:45:02.049Z,95
2017-08-09T06:46:02.711Z,101
2017-08-09T06:47:03.412Z,95
2017-08-09T06:48:04.075Z,95
2017-08-09T06:49:04.738Z,101
2017-08-09T06:50:05.649Z,95
2017-08-09T06:51:06.312Z,95
2017-08-09T06:52:06.973Z,101
2017-08-09T06:53:07.636Z,106
2017-08-09T06:54:08.298Z,106
2017-08-09T06:55:09.210Z,112
2017-08-09T06:56:09.875Z,118
2017-08-09T06:57:10.538Z,118
2017-08-09T06:58:11.201Z,118
2017-08-09T06:59:11.865Z,118
2017-08-09T07:00:12.812Z,118
2017-08-09T07:01:13.475Z,118
2017-08-09T07:02:14.138Z,118
2017-08-09T07:03:14.802Z,118
2017-08-09T07:04:15.463Z,118
2017-08-09T07:05:16.426Z,118
2017-08-09T07:06:17.089Z,118
2017-08-09T07:07:17.751Z,118
2017-08-09T07:08:18.451Z,118
2017-08-09T07:09:19.113Z,118
2017-08-09T07:10:20.022Z,118
2017-08-09T07:11:20.685Z,118
2017-08-09T07:12:21.349Z,118
2017-08-09T07:13:22.013Z,118
2017-08-09T07:14:22.676Z,118
2017-08-09T07:15:23.588Z,118
2017-08-09T07:16:24.250Z,118
2017-08-09T07:17:24.916Z,118
2017-08-09T07:18:25.620Z,118
2017-08-09T07:19:26.274Z,118
2017-08-09T07:20:27.238Z,118
2017-08-09T07:21:27.900Z,118
2017-08-09T07:22:28.562Z,118
2017-08-09T07:23:29.226Z,118
2017-08-09T07:24:29.889Z,123
2017-08-09T07:25:30.803Z,123
2017-08-09T07:26:31.463Z,123
2017-08-09T07:27:32.127Z,123
2017-08-09T07:28:32.790Z,123
2017-08-09T07:29:33.452Z,123
2017-08-09T07:30:34.362Z,135
2017-08-09T07:31:35.024Z,129
2017-08-09T07:32:35.705Z,129
2017-08-09T07:33:36.352Z,118
2017-08-09T07:34:37.014Z,129
2017-08-09T07:35:37.929Z,129
2017-08-09T07:36:38.590Z,135
2017-08-09T07:37:39.253Z,135
2017-08-09T07:38:39.919Z,140
2017-08-09T07:39:40.579Z,140
2017-08-09T07:40:41.490Z,146
2017-08-09T07:41:42.151Z,146
2017-08-09T07:42:42.816Z,151
2017-08-09T07:43:43.475Z,180
2017-08-09T07:44:44.173Z,140
2017-08-09T07:45:45.085Z,157
2017-08-09T07:46:45.750Z,163
2017-08-09T07:47:46.410Z,163
2017-08-09T07:48:47.077Z,163
2017-08-09T07:49:47.752Z,225
2017-08-09T07:50:48.669Z,180
2017-08-09T07:51:49.356Z,163
2017-08-09T07:52:50.007Z,208
2017-08-09T07:53:50.672Z,174
2017-08-09T07:54:51.356Z,157
2017-08-09T07:55:52.300Z,157
2017-08-09T07:56:52.962Z,208
2017-08-09T07:57:53.623Z,185
2017-08-09T07:58:54.285Z,151
2017-08-09T07:59:54.957Z,129
2017-08-09T08:00:55.871Z,140
2017-08-09T08:01:56.539Z,185
2017-08-09T08:02:57.202Z,157
2017-08-09T08:03:57.866Z,123
2017-08-09T08:04:58.564Z,140
2017-08-09T08:05:59.479Z,174
2017-08-09T08:07:00.144Z,174
2017-08-09T08:08:00.807Z,140
2017-08-09T08:09:01.471Z,196
2017-08-09T08:10:02.130Z,151
2017-08-09T08:11:03.043Z,123
2017-08-09T08:12:03.708Z,151
2017-08-09T08:13:04.370Z,146
2017-08-09T08:14:05.032Z,135
2017-08-09T08:15:05.701Z,157
2017-08-09T08:16:06.665Z,157
2017-08-09T08:17:07.332Z,157
2017-08-09T08:18:08.032Z,185
2017-08-09T08:19:08.694Z,174
2017-08-09T08:20:09.357Z,146
2017-08-09T08:21:10.269Z,163
2017-08-09T08:22:10.930Z,129
2017-08-09T08:23:11.596Z,163
2017-08-09T08:24:12.258Z,163
2017-08-09T08:25:12.921Z,163
2017-08-09T08:26:13.884Z,163
2017-08-09T08:27:14.548Z,168
2017-08-09T08:28:15.220Z,168
2017-08-09T08:29:15.881Z,168
2017-08-09T08:30:16.547Z,151
2017-08-09T08:31:17.461Z,168
2017-08-09T08:32:18.126Z,163
2017-08-09T08:33:18.839Z,163
2017-08-09T08:34:19.509Z,168
2017-08-09T08:35:20.166Z,168
2017-08-09T08:36:21.130Z,168
2017-08-09T08:37:21.795Z,168
2017-08-09T08:38:22.458Z,174
2017-08-09T08:39:23.122Z,157
2017-08-09T08:40:23.788Z,168
2017-08-09T08:41:24.702Z,168
2017-08-09T08:42:25.368Z,168
2017-08-09T08:43:26.029Z,168
2017-08-09T08:44:26.727Z,168
2017-08-09T08:45:27.391Z,168
2017-08-09T08:46:28.305Z,168
2017-08-09T08:47:28.968Z,168
2017-08-09T08:48:29.630Z,168
2017-08-09T08:49:30.297Z,168
2017-08-09T08:50:30.960Z,168
2017-08-09T08:51:31.874Z,168
2017-08-09T08:52:32.538Z,168
2017-08-09T08:53:33.202Z,168
2017-08-09T08:54:33.863Z,174
2017-08-09T08:55:34.528Z,168
2017-08-09T08:56:35.442Z,168
2017-08-09T08:57:36.106Z,168
2017-08-09T08:58:36.769Z,168
2017-08-09T08:59:37.433Z,168
2017-08-09T09:00:38.096Z,174
2017-08-09T09:01:39.058Z,174
2017-08-09T09:02:39.722Z,174
2017-08-09T09:03:40.386Z,174
2017-08-09T09:04:41.049Z,174
2017-08-09T09:05:41.713Z,174
2017-08-09T09:06:42.627Z,174
2017-08-09T09:07:43.292Z,174
2017-08-09T09:08:43.958Z,174
2017-08-09T09:09:44.620Z,174
2017-08-09T09:10:45.282Z,180
2017-08-09T09:11:46.247Z,180
2017-08-09T09:12:46.949Z,180
2017-08-09T09:13:47.613Z,180
2017-08-09T09:14:48.275Z,180
2017-08-09T09:15:48.937Z,180
2017-08-09T09:16:49.853Z,185
2017-08-09T09:17:50.518Z,185
2017-08-09T09:18:51.182Z,191
2017-08-09T09:19:51.845Z,191
2017-08-09T09:20:52.509Z,191
2017-08-09T09:21:53.423Z,196
2017-08-09T09:22:54.088Z,202
2017-08-09T09:23:54.754Z,202
2017-08-09T09:24:55.418Z,208
2017-08-09T09:25:56.084Z,213
2017-08-09T09:26:56.999Z,213
2017-08-09T09:27:57.663Z,213
2017-08-09T09:28:58.329Z,219
2017-08-09T09:29:58.992Z,225
2017-08-09T09:30:59.655Z,230
2017-08-09T09:32:00.571Z,230
2017-08-09T09:33:01.236Z,236
2017-08-09T09:34:01.903Z,236
2017-08-09T09:35:02.569Z,241
2017-08-09T09:36:03.270Z,253
2017-08-09T09:37:04.188Z,258
2017-08-09T09:38:04.856Z,264
2017-08-09T09:39:05.524Z,281
2017-08-09T09:40:06.191Z,298
2017-08-09T09:41:06.859Z,315
2017-08-09T09:42:07.777Z,331
2017-08-09T09:43:08.446Z,371
2017-08-09T09:44:09.116Z,489
2017-08-09T09:45:09.786Z,1040
2017-08-09T09:46:10.458Z,2340
2017-08-09T09:47:11.379Z,3521
2017-08-09T09:48:12.051Z,4376
2017-08-09T09:49:12.722Z,4331
2017-08-09T09:50:13.395Z,4483
2017-08-09T09:51:14.067Z,4089
2017-08-09T09:52:15.046Z,3836
2017-08-09T09:53:15.718Z,3971
2017-08-09T09:54:16.388Z,3397
2017-08-09T09:55:17.061Z,4066
2017-08-09T09:56:17.732Z,3611
2017-08-09T09:57:18.654Z,4055
2017-08-09T09:58:19.362Z,4325
2017-08-09T09:59:20.035Z,4123
2017-08-09T10:00:20.707Z,4224
2017-08-09T10:01:21.378Z,4320
2017-08-09T10:02:22.302Z,4021
2017-08-09T10:03:22.980Z,4083
2017-08-09T10:04:23.648Z,4089
2017-08-09T10:05:24.318Z,3386
2017-08-09T10:06:24.991Z,4145
2017-08-09T10:07:25.964Z,3667
2017-08-09T10:08:26.637Z,3723
2017-08-09T10:09:27.309Z,4123
2017-08-09T10:10:28.019Z,4483
2017-08-09T10:11:28.692Z,4494
2017-08-09T10:12:29.618Z,3504
2017-08-09T10:13:30.287Z,3571
2017-08-09T10:14:30.958Z,4201
2017-08-09T10:15:31.631Z,3948
2017-08-09T10:16:32.306Z,4539
2017-08-09T10:17:33.231Z,4365
2017-08-09T10:18:33.906Z,4308
2017-08-09T10:19:34.578Z,4612
2017-08-09T10:20:35.254Z,4533
2017-08-09T10:21:35.928Z,4218
2017-08-09T10:22:36.850Z,4477
2017-08-09T10:23:37.527Z,4252
2017-08-09T10:24:38.203Z,3757
2017-08-09T10:25:38.875Z,2981
2017-08-09T10:26:39.554Z,3386
2017-08-09T10:27:40.524Z,3037
2017-08-09T10:28:41.238Z,3825
2017-08-09T10:29:41.913Z,4438
2017-08-09T10:30:42.588Z,4590
2017-08-09T10:31:43.266Z,4455
2017-08-09T10:32:44.198Z,4466
2017-08-09T10:33:44.867Z,4528
2017-08-09T10:34:45.543Z,4297
2017-08-09T10:35:46.218Z,4123
2017-08-09T10:36:46.893Z,4331
2017-08-09T10:37:47.819Z,4455
2017-08-09T10:38:48.497Z,4432
2017-08-09T10:39:49.205Z,922
2017-08-09T10:40:49.882Z,4218
2017-08-09T10:41:50.559Z,4438
2017-08-09T10:42:51.486Z,4488
2017-08-09T10:43:52.162Z,4415
2017-08-09T10:44:52.838Z,4241
2017-08-09T10:45:53.514Z,1873
2017-08-09T10:46:54.189Z,3138
2017-08-09T10:47:55.115Z,4376
2017-08-09T10:48:55.800Z,4381
2017-08-09T10:49:56.475Z,4432
2017-08-09T10:50:57.151Z,4483
2017-08-09T10:51:57.828Z,4336
2017-08-09T10:52:58.804Z,4466
2017-08-09T10:53:59.480Z,4477
2017-08-09T10:55:00.156Z,4533
2017-08-09T10:56:00.850Z,4854
2017-08-09T10:57:01.510Z,4978
2017-08-09T10:58:02.474Z,4230
2017-08-09T10:59:03.149Z,4432
2017-08-09T11:00:03.825Z,4455
2017-08-09T11:01:04.502Z,4528
2017-08-09T11:02:05.176Z,4545
2017-08-09T11:03:06.102Z,4235
2017-08-09T11:04:06.777Z,3397
2017-08-09T11:05:07.452Z,4083
2017-08-09T11:06:08.129Z,4123
2017-08-09T11:07:08.807Z,4179
2017-08-09T11:08:09.767Z,3943
2017-08-09T11:09:10.446Z,3133
2017-08-09T11:10:11.123Z,2806
2017-08-09T11:11:11.800Z,3330
2017-08-09T11:12:12.474Z,3408
2017-08-09T11:13:13.399Z,3549
2017-08-09T11:14:14.077Z,3133
2017-08-09T11:15:14.752Z,2998
2017-08-09T11:16:15.465Z,2902
2017-08-09T11:17:16.147Z,2525
2017-08-09T11:18:17.071Z,2160
2017-08-09T11:19:17.746Z,1243
2017-08-09T11:20:18.424Z,1316
2017-08-09T11:21:19.137Z,1243
2017-08-09T11:22:19.834Z,1170
2017-08-09T11:23:20.788Z,1091
2017-08-09T11:24:21.465Z,1130
2017-08-09T11:25:22.142Z,1102
2017-08-09T11:26:22.819Z,1102
2017-08-09T11:27:23.514Z,1119
2017-08-09T11:28:24.470Z,1125
2017-08-09T11:29:25.143Z,1113
2017-08-09T11:30:25.816Z,984
2017-08-09T11:31:26.488Z,945
2017-08-09T11:32:27.165Z,1136
2017-08-09T11:33:28.137Z,1119
2017-08-09T11:34:28.813Z,1051
2017-08-09T11:35:29.487Z,1113
2017-08-09T11:36:30.160Z,1091
2017-08-09T11:37:30.836Z,1006
2017-08-09T11:38:31.796Z,978
2017-08-09T11:39:32.469Z,877
2017-08-09T11:40:33.145Z,1029
2017-08-09T11:41:33.819Z,1051
2017-08-09T11:42:34.497Z,1057
2017-08-09T11:43:35.475Z,1063
2017-08-09T11:44:36.146Z,1080
2017-08-09T11:45:36.822Z,1068
2017-08-09T11:46:37.499Z,1080
2017-08-09T11:47:38.210Z,1085
2017-08-09T11:48:39.191Z,1080
2017-08-09T11:49:39.869Z,1091
2017-08-09T11:50:40.540Z,1096
2017-08-09T11:51:41.215Z,1102
2017-08-09T11:52:41.887Z,1108
2017-08-09T11:53:42.816Z,1102
2017-08-09T11:54:43.489Z,1119
2017-08-09T11:55:44.163Z,849
2017-08-09T11:56:44.873Z,658
2017-08-09T11:57:45.549Z,860
2017-08-09T11:58:46.523Z,1147
2017-08-09T11:59:47.199Z,1119
2017-08-09T12:00:47.872Z,1057
2017-08-09T12:01:48.545Z,1035
2017-08-09T12:02:49.221Z,1080
2017-08-09T12:03:50.150Z,1085
2017-08-09T12:04:50.825Z,1057
2017-08-09T12:05:51.533Z,1001
2017-08-09T12:06:52.204Z,450
2017-08-09T12:07:52.878Z,945
2017-08-09T12:08:53.940Z,1096
2017-08-09T12:09:54.652Z,1119
2017-08-09T12:10:55.325Z,393
2017-08-09T12:11:55.999Z,1040
2017-08-09T12:12:56.674Z,1102
2017-08-09T12:13:57.634Z,1125
2017-08-09T12:14:58.308Z,838
2017-08-09T12:15:58.982Z,900
2017-08-09T12:16:59.694Z,1051
2017-08-09T12:18:00.366Z,883
2017-08-09T12:19:01.289Z,1119
2017-08-09T12:20:01.965Z,1119
2017-08-09T12:21:02.638Z,1085
2017-08-09T12:22:03.314Z,1080
2017-08-09T12:23:03.987Z,1113
2017-08-09T12:24:04.963Z,1141
2017-08-09T12:25:05.700Z,1125
2017-08-09T12:26:06.386Z,1006
2017-08-09T12:27:07.060Z,1029
2017-08-09T12:28:07.734Z,1080
2017-08-09T12:29:08.708Z,911
2017-08-09T12:30:09.382Z,1170
2017-08-09T12:31:10.058Z,1141
2017-08-09T12:32:10.770Z,1136
2017-08-09T12:33:11.444Z,1186
2017-08-09T12:34:12.368Z,1175
2017-08-09T12:35:13.043Z,1170
2017-08-09T12:36:13.720Z,1175
2017-08-09T12:37:14.396Z,1186
2017-08-09T12:38:15.074Z,1164
2017-08-09T12:39:15.999Z,1231
2017-08-09T12:40:16.711Z,1220
2017-08-09T12:41:17.385Z,793
2017-08-09T12:42:18.058Z,511
2017-08-09T12:43:18.736Z,1130
2017-08-09T12:44:19.661Z,1237
2017-08-09T12:45:20.337Z,1243
2017-08-09T12:46:21.047Z,1231
2017-08-09T12:47:21.723Z,1215
2017-08-09T12:48:22.399Z,973
2017-08-09T12:49:23.377Z,1113
2017-08-09T12:50:24.050Z,1074
2017-08-09T12:51:24.722Z,489
2017-08-09T12:52:25.397Z,916
2017-08-09T12:53:26.072Z,1288
2017-08-09T12:54:26.995Z,450
2017-08-09T12:55:27.669Z,624
2017-08-09T12:56:28.342Z,787
2017-08-09T12:57:29.016Z,967
2017-08-09T12:58:29.689Z,742
2017-08-09T12:59:30.611Z,928
2017-08-09T13:00:31.283Z,781
2017-08-09T13:01:31.958Z,1158
2017-08-09T13:02:32.632Z,1310
2017-08-09T13:03:33.310Z,1282
2017-08-09T13:04:34.269Z,1282
2017-08-09T13:05:35.035Z,1243
2017-08-09T13:06:35.740Z,1243
2017-08-09T13:07:36.414Z,1260
2017-08-09T13:08:37.089Z,1243
2017-08-09T13:09:38.013Z,1237
2017-08-09T13:10:38.688Z,1254
2017-08-09T13:11:39.363Z,1248
2017-08-09T13:12:40.037Z,1271
2017-08-09T13:13:40.711Z,1243
2017-08-09T13:14:41.685Z,1265
2017-08-09T13:15:42.360Z,1276
2017-08-09T13:16:43.034Z,1288
2017-08-09T13:17:43.707Z,489
2017-08-09T13:18:44.381Z,427
2017-08-09T13:19:45.305Z,410
2017-08-09T13:20:45.980Z,365
2017-08-09T13:21:46.653Z,354
2017-08-09T13:22:47.325Z,348
2017-08-09T13:23:47.998Z,405
2017-08-09T13:24:48.920Z,399
2017-08-09T13:25:49.591Z,438
2017-08-09T13:26:50.268Z,596
2017-08-09T13:27:50.942Z,1316
2017-08-09T13:28:51.617Z,1321
2017-08-09T13:29:52.590Z,1276
2017-08-09T13:30:53.262Z,438
2017-08-09T13:31:53.933Z,1170
2017-08-09T13:32:54.606Z,984
2017-08-09T13:33:55.273Z,360
2017-08-09T13:34:56.248Z,337
2017-08-09T13:35:56.916Z,320
2017-08-09T13:36:57.588Z,303
2017-08-09T13:37:58.294Z,298
2017-08-09T13:38:58.965Z,292
2017-08-09T13:39:59.886Z,286
2017-08-09T13:41:00.559Z,281
2017-08-09T13:42:01.263Z,298
2017-08-09T13:43:01.969Z,326
2017-08-09T13:44:02.636Z,382
2017-08-09T13:45:03.607Z,545
2017-08-09T13:46:04.280Z,2598
2017-08-09T13:47:04.952Z,433
2017-08-09T13:48:05.623Z,1901
2017-08-09T13:49:06.295Z,2278
2017-08-09T13:50:07.258Z,2570
2017-08-09T13:51:07.926Z,826
2017-08-09T13:52:08.596Z,568
2017-08-09T13:53:09.268Z,2463
2017-08-09T13:54:09.941Z,2205
2017-08-09T13:55:10.863Z,2368
2017-08-09T13:56:11.532Z,2356
2017-08-09T13:57:12.205Z,2373
2017-08-09T13:58:12.876Z,2233
2017-08-09T13:59:13.545Z,2221
2017-08-09T14:00:14.467Z,2351
2017-08-09T14:01:15.137Z,2137
2017-08-09T14:02:15.806Z,2002
2017-08-09T14:03:16.477Z,2373
2017-08-09T14:04:17.147Z,2413
2017-08-09T14:05:18.121Z,2401
2017-08-09T14:06:18.795Z,2356
2017-08-09T14:07:19.470Z,748
2017-08-09T14:08:20.140Z,1541